Time;durP1;ratioP1;P1;durP2;ratioP2;P2;SDS_P1;SDS_P2;PMS_P1;PMS_P2;Temp;Humidity;BMP_temperature;BMP_pressure;BME280_temperature;BME280_humidity;BME280_pressure;Samples;Min_cycle;Max_cycle;Signal;HPM_P1;HPM_P2
2022/12/19 09:18:27;;;;;;;46.83;27.08;;;;;;;2.64;64.45;96520.81;4188450;22;21121;-68
2022/12/19 09:20:29;;;;;;;49.05;26.92;;;;;;;2.78;64.39;96521.06;4160007;28;20061;-70
2022/12/19 09:22:31;;;;;;;44.50;26.00;;;;;;;2.94;63.84;96510.03;4156212;28;20053;-69
2022/12/19 09:24:36;;;;;;;48.88;24.58;;;;;;;3.12;63.83;96511.81;4173778;28;20045;-72
2022/12/19 09:26:38;;;;;;;40.72;22.42;;;;;;;3.01;63.82;96507.13;4177731;28;20104;-81
2022/12/19 09:28:41;;;;;;;41.40;22.10;;;;;;;2.90;63.87;96500.72;4180185;28;20388;-82
2022/12/19 09:30:42;;;;;;;40.13;20.38;;;;;;;2.90;64.63;96495.53;4175921;28;20053;-69
2022/12/19 09:32:44;;;;;;;43.55;22.10;;;;;;;3.01;65.82;96496.75;4171269;28;20447;-75
2022/12/19 09:34:46;;;;;;;41.00;23.20;;;;;;;3.21;64.59;96490.66;4178500;28;20071;-74
2022/12/19 09:36:49;;;;;;;39.90;22.23;;;;;;;3.34;64.23;96479.75;4180545;28;21093;-74
2022/12/19 09:38:55;;;;;;;41.03;22.25;;;;;;;3.53;64.46;96477.97;4175800;28;20492;-74
2022/12/19 09:40:57;;;;;;;38.75;19.63;;;;;;;3.64;63.21;96475.72;4179201;28;20431;-74
2022/12/19 09:43:23;;;;;;;43.50;23.45;;;;;;;3.59;64.04;96471.66;4177265;28;20053;-75
2022/12/19 09:45:43;;;;;;;43.35;20.48;;;;;;;3.65;63.26;96472.19;4159450;28;20594;-72
2022/12/19 09:47:46;;;;;;;33.40;19.65;;;;;;;3.18;64.07;96467.47;4156059;28;20581;-69
2022/12/19 09:49:48;;;;;;;32.83;17.60;;;;;;;3.20;64.45;96470.84;4171730;28;20136;-69
2022/12/19 09:51:57;;;;;;;35.15;18.65;;;;;;;3.34;64.58;96471.97;4158459;28;20053;-73
2022/12/19 09:54:05;;;;;;;35.25;17.73;;;;;;;3.25;64.93;96463.72;4172518;28;20052;-73
2022/12/19 09:56:13;;;;;;;31.20;17.27;;;;;;;3.31;65.18;96465.16;4155779;28;20747;-71
2022/12/19 09:58:51;;;;;;;35.35;16.83;;;;;;;3.34;65.10;96459.84;4154107;28;20050;-74
2022/12/19 10:00:58;;;;;;;34.05;18.77;;;;;;;3.17;66.02;96462.41;4093755;28;20142;-73
2022/12/19 10:03:21;;;;;;;32.10;18.23;;;;;;;3.14;66.32;96457.34;4127098;28;20045;-73
2022/12/19 10:05:46;;;;;;;34.13;17.75;;;;;;;3.36;66.03;96455.44;4158264;28;20061;-78
2022/12/19 10:08:19;;;;;;;34.05;18.77;;;;;;;3.65;65.01;96455.81;4168443;28;20523;-73
2022/12/19 10:10:57;;;;;;;35.97;17.90;;;;;;;3.87;64.94;96451.28;4147928;28;20073;-74
2022/12/19 10:13:40;;;;;;;34.03;17.38;;;;;;;3.93;64.28;96441.50;4164464;28;20073;-70
2022/12/19 10:15:48;;;;;;;36.63;18.67;;;;;;;3.55;64.24;96446.78;4146081;28;20077;-79
2022/12/19 10:18:25;;;;;;;35.85;17.98;;;;;;;3.49;65.19;96434.97;4151973;28;20078;-76
2022/12/19 10:20:34;;;;;;;33.63;18.70;;;;;;;3.51;65.28;96432.28;4172705;28;20052;-86
2022/12/19 10:23:04;;;;;;;34.53;18.15;;;;;;;3.39;66.20;96437.16;4149022;28;20046;-79
2022/12/19 10:25:27;;;;;;;35.15;18.05;;;;;;;3.26;65.90;96423.94;4144512;28;20485;-69
2022/12/19 10:27:40;;;;;;;34.05;17.83;;;;;;;3.12;66.68;96423.75;4163760;28;20053;-72
2022/12/19 10:30:13;;;;;;;33.28;18.05;;;;;;;3.17;67.14;96424.38;4152495;28;20477;-72
2022/12/19 10:32:24;;;;;;;33.22;17.90;;;;;;;3.43;67.04;96410.19;4145724;28;20054;-71
2022/12/19 10:34:34;;;;;;;36.97;18.08;;;;;;;3.66;65.53;96416.88;4163814;28;20065;-72
2022/12/19 10:36:44;;;;;;;33.33;17.17;;;;;;;3.46;65.50;96416.97;4150425;28;20133;-71
2022/12/19 10:39:14;;;;;;;32.60;18.08;;;;;;;3.23;66.48;96416.31;4160611;28;20057;-80
2022/12/19 10:41:18;;;;;;;33.97;18.65;;;;;;;3.03;67.39;96414.69;4133739;28;20515;-71
2022/12/19 10:43:40;;;;;;;33.33;18.05;;;;;;;3.01;67.21;96403.56;4163134;28;20489;-73
2022/12/19 10:45:51;;;;;;;36.03;19.80;;;;;;;2.73;68.00;96410.88;4168895;28;20085;-73
2022/12/19 10:47:57;;;;;;;41.00;21.73;;;;;;;2.80;68.10;96413.13;4164520;28;20422;-73
2022/12/19 10:49:58;;;;;;;35.75;19.67;;;;;;;2.92;68.37;96403.94;4169222;28;20657;-79
2022/12/19 10:52:11;;;;;;;37.42;19.08;;;;;;;3.11;67.49;96406.53;4164119;28;20125;-70
2022/12/19 10:54:12;;;;;;;37.22;19.63;;;;;;;3.04;67.47;96407.75;4160774;28;20108;-72
2022/12/19 10:56:22;;;;;;;34.08;18.90;;;;;;;2.94;68.08;96406.47;4161707;28;20111;-72
2022/12/19 10:58:34;;;;;;;36.67;20.33;;;;;;;3.11;67.66;96403.13;4164520;28;20064;-72
2022/12/19 11:00:36;;;;;;;32.90;18.10;;;;;;;2.98;67.94;96402.84;4149015;28;20054;-73
2022/12/19 11:02:38;;;;;;;34.97;19.73;;;;;;;2.86;68.01;96406.81;4149243;28;20167;-71
2022/12/19 11:04:40;;;;;;;39.00;19.30;;;;;;;2.86;68.22;96406.81;4173943;28;20060;-73
2022/12/19 11:06:50;;;;;;;35.60;18.92;;;;;;;2.94;68.19;96401.31;4173464;28;20068;-72
2022/12/19 11:08:51;;;;;;;41.25;19.75;;;;;;;2.91;68.75;96402.28;4156810;28;20076;-72
2022/12/19 11:10:55;;;;;;;34.67;19.50;;;;;;;2.60;69.14;96400.22;4141719;28;20420;-71
2022/12/19 11:13:28;;;;;;;37.33;20.48;;;;;;;2.74;69.39;96405.63;4157092;28;20050;-72
2022/12/19 11:15:58;;;;;;;35.28;19.60;;;;;;;2.67;69.46;96399.06;4157542;28;20076;-72
2022/12/19 11:18:20;;;;;;;37.90;20.50;;;;;;;2.63;69.92;96395.78;4173186;28;20484;-71
2022/12/19 11:21:17;;;;;;;36.85;20.35;;;;;;;2.60;69.94;96397.66;4173818;28;20052;-73
2022/12/19 11:24:03;;;;;;;36.88;20.77;;;;;;;2.56;70.03;96396.09;4173479;28;20084;-71
2022/12/19 11:26:45;;;;;;;33.33;19.20;;;;;;;2.83;69.48;96391.44;4175725;28;20144;-72
2022/12/19 11:29:28;;;;;;;34.50;19.75;;;;;;;2.99;68.79;96392.41;4171838;28;20165;-72
2022/12/19 11:31:58;;;;;;;33.50;19.38;;;;;;;3.10;68.73;96389.34;4171233;28;20186;-74
2022/12/19 11:34:22;;;;;;;38.15;19.67;;;;;;;2.98;69.19;96389.91;4164764;28;20055;-74
2022/12/19 11:36:50;;;;;;;34.38;18.50;;;;;;;2.85;69.09;96395.63;4171370;28;20057;-72
2022/12/19 11:38:52;;;;;;;32.53;18.60;;;;;;;2.81;69.63;96401.03;4130936;28;20052;-74
2022/12/19 11:40:56;;;;;;;32.38;19.23;;;;;;;2.79;69.49;96390.72;4176281;28;20530;-72
2022/12/19 11:43:19;;;;;;;28.25;16.75;;;;;;;2.73;69.43;96388.44;4175165;28;20551;-71
2022/12/19 11:46:05;;;;;;;28.77;16.25;;;;;;;2.72;69.59;96386.75;4175708;28;20048;-73
2022/12/19 11:48:19;;;;;;;27.98;16.17;;;;;;;2.80;69.46;96387.25;4175610;28;20061;-73
2022/12/19 11:50:25;;;;;;;29.38;16.48;;;;;;;2.71;69.82;96384.22;4155589;28;20088;-73
2022/12/19 11:52:30;;;;;;;29.98;16.38;;;;;;;2.78;69.63;96383.06;4156317;28;20104;-73
2022/12/19 11:54:54;;;;;;;;;;;;;;;2.82;69.32;96385.44;4174190;28;20132;-74
2022/12/19 11:56:56;;;;;;;28.60;16.98;;;;;;;2.93;69.36;96391.88;4156750;28;20344;-73
2022/12/19 11:59:04;;;;;;;26.73;16.67;;;;;;;2.91;69.43;96386.75;4171343;28;20115;-72
2022/12/19 12:01:29;;;;;;;26.30;15.60;;;;;;;3.10;68.73;96381.56;4157062;28;20104;-72
2022/12/19 12:03:36;;;;;;;25.90;15.82;;;;;;;3.21;68.77;96384.47;4173745;28;20055;-75
2022/12/19 12:05:50;;;;;;;29.13;15.55;;;;;;;3.16;68.67;96381.28;4155514;28;20769;-73
2022/12/19 12:08:30;;;;;;;26.92;14.68;;;;;;;3.26;67.78;96376.47;4174772;28;20813;-71
2022/12/19 12:11:00;;;;;;;26.15;14.38;;;;;;;3.30;67.74;96382.38;4162247;28;20049;-72
2022/12/19 12:13:38;;;;;;;23.35;14.68;;;;;;;3.31;67.82;96389.22;4154047;28;20053;-72
2022/12/19 12:16:08;;;;;;;23.80;14.73;;;;;;;3.52;67.76;96384.75;4139703;28;20124;-74
2022/12/19 12:18:48;;;;;;;23.25;14.02;;;;;;;3.59;67.50;96388.72;4164350;28;20141;-71
2022/12/19 12:21:23;;;;;;;21.10;13.23;;;;;;;3.16;68.16;96385.59;4149394;28;20053;-74
2022/12/19 12:24:00;;;;;;;22.10;12.45;;;;;;;3.26;68.89;96381.66;4146682;28;20052;-70
2022/12/19 12:26:27;;;;;;;20.65;13.35;;;;;;;3.43;68.41;96380.88;4168839;28;20078;-71
2022/12/19 12:29:04;;;;;;;22.75;13.00;;;;;;;3.53;68.19;96378.66;4161606;28;20429;-72
2022/12/19 12:31:26;;;;;;;27.00;13.75;;;;;;;3.44;67.61;96388.56;4161073;28;20045;-72
2022/12/19 12:34:07;;;;;;;23.33;11.57;;;;;;;3.23;68.28;96387.00;4168135;28;20064;-70
2022/12/19 12:36:52;;;;;;;22.63;12.30;;;;;;;3.16;69.07;96394.22;4174010;28;20124;-72
2022/12/19 12:39:31;;;;;;;21.00;12.50;;;;;;;3.41;68.90;96390.47;4164847;28;20080;-70
2022/12/19 12:44:08;;;;;;;22.70;12.35;;;;;;;3.25;68.35;96405.91;4152305;28;20086;-72
2022/12/19 12:46:27;;;;;;;19.20;12.43;;;;;;;3.19;69.00;96398.41;4145940;28;20164;-74
2022/12/19 12:48:34;;;;;;;24.20;12.73;;;;;;;3.22;69.08;96390.50;4129769;28;20088;-72
2022/12/19 12:50:39;;;;;;;24.80;13.45;;;;;;;3.20;68.86;96392.31;4164353;28;20112;-73
2022/12/19 12:52:44;;;;;;;27.52;14.32;;;;;;;3.24;69.56;96396.44;4146457;28;20144;-70
2022/12/19 12:54:48;;;;;;;24.70;13.93;;;;;;;3.21;68.60;96378.47;4164559;28;20053;-74
2022/12/19 12:56:50;;;;;;;20.85;13.68;;;;;;;3.33;68.42;96382.22;4146732;28;20053;-73
2022/12/19 12:58:52;;;;;;;20.33;13.40;;;;;;;3.43;67.91;96373.09;4166429;28;20376;-77
2022/12/19 13:01:18;;;;;;;22.50;13.05;;;;;;;3.63;67.27;96385.06;4166004;28;20045;-71
2022/12/19 13:03:23;;;;;;;23.17;12.65;;;;;;;3.68;67.13;96383.94;4149755;28;20054;-73
2022/12/19 13:05:35;;;;;;;21.95;13.38;;;;;;;3.73;66.59;96381.13;4154410;28;20096;-72
2022/12/19 13:07:50;;;;;;;21.17;12.05;;;;;;;3.78;65.14;96378.28;4157909;28;20057;-72
2022/12/19 13:10:05;;;;;;;20.33;12.40;;;;;;;3.78;64.79;96388.66;4157800;28;20164;-72
2022/12/19 13:14:47;;;;;;;22.73;12.43;;;;;;;3.88;65.38;96384.69;4170725;28;20075;-70
2022/12/19 13:16:51;;;;;;;20.42;12.70;;;;;;;3.72;64.55;96384.59;4148918;28;20141;-72
2022/12/19 13:19:17;;;;;;;20.23;12.60;;;;;;;3.71;64.15;96382.94;4160316;28;20054;-72
2022/12/19 13:22:03;;;;;;;17.75;11.70;;;;;;;3.89;64.00;96387.22;4158809;28;20136;-72
2022/12/19 13:24:12;;;;;;;19.17;11.52;;;;;;;3.87;63.78;96394.25;4177819;28;20476;-72
2022/12/19 13:26:46;;;;;;;25.35;12.70;;;;;;;4.02;64.07;96397.81;4160770;28;20062;-72
2022/12/19 13:28:49;;;;;;;19.48;11.98;;;;;;;4.11;62.92;96396.50;4160344;28;20053;-68
2022/12/19 13:31:12;;;;;;;21.13;12.73;;;;;;;4.24;62.06;96401.91;4173188;28;20056;-70
2022/12/19 13:33:22;;;;;;;18.67;11.45;;;;;;;4.21;61.39;96405.47;4174850;28;20053;-74
2022/12/19 13:35:26;;;;;;;20.13;11.40;;;;;;;4.27;62.45;96410.38;4165700;28;20053;-75
2022/12/19 13:37:50;;;;;;;22.17;11.45;;;;;;;4.20;61.67;96411.59;4175450;28;20884;-70
2022/12/19 13:40:27;;;;;;;17.98;10.93;;;;;;;4.29;61.61;96415.47;4174927;28;20111;-74
2022/12/19 13:45:23;;;;;;;20.45;11.82;;;;;;;4.47;60.96;96416.28;4150766;28;20456;-71
2022/12/19 13:47:28;;;;;;;20.92;12.32;;;;;;;4.48;60.17;96411.00;4163806;28;20216;-71
2022/12/19 13:49:33;;;;;;;19.83;10.88;;;;;;;4.48;60.02;96410.19;4132467;28;20058;-73
2022/12/19 13:51:51;;;;;;;24.23;11.73;;;;;;;4.46;60.81;96414.63;4168051;28;20137;-73
2022/12/19 13:53:55;;;;;;;20.10;11.70;;;;;;;4.34;60.36;96415.25;4160765;28;20061;-72
2022/12/19 13:56:03;;;;;;;20.17;10.88;;;;;;;4.21;60.34;96412.44;4170210;28;20057;-75
2022/12/19 13:58:05;;;;;;;16.92;10.30;;;;;;;4.13;60.64;96415.44;4168983;28;20049;-73
2022/12/19 14:00:10;;;;;;;18.77;10.82;;;;;;;4.12;60.87;96412.91;4148055;28;20125;-72
2022/12/19 14:02:44;;;;;;;17.15;10.70;;;;;;;4.22;61.23;96424.50;4176678;28;20049;-77
2022/12/19 14:04:47;;;;;;;22.45;13.63;;;;;;;4.30;61.05;96417.16;4132693;28;20058;-72
2022/12/19 14:06:57;;;;;;;19.58;11.23;;;;;;;4.38;60.44;96416.75;4170344;28;20087;-73
2022/12/19 14:09:09;;;;;;;23.60;12.27;;;;;;;4.43;60.90;96413.03;4165232;28;20129;-83
2022/12/19 14:11:40;;;;;;;18.60;11.23;;;;;;;4.43;60.60;96418.22;4162230;28;20071;-71
2022/12/19 14:16:29;;;;;;;18.58;11.68;;;;;;;4.43;59.87;96426.00;4169454;28;20057;-70
2022/12/19 14:18:49;;;;;;;20.90;12.93;;;;;;;4.49;60.85;96422.22;4166763;28;20516;-72
2022/12/19 14:21:14;;;;;;;20.13;11.43;;;;;;;4.35;59.75;96419.53;4152900;28;20049;-72
2022/12/19 14:23:36;;;;;;;18.40;11.27;;;;;;;4.26;59.65;96436.41;4166484;28;20049;-69
2022/12/19 14:25:50;;;;;;;20.65;12.15;;;;;;;4.32;60.02;96436.06;4171176;28;20490;-85
2022/12/19 14:28:22;;;;;;;24.17;12.07;;;;;;;4.34;60.07;96431.63;4183376;28;20506;-71
2022/12/19 14:30:34;;;;;;;21.70;12.30;;;;;;;4.35;59.56;96430.75;4130505;28;20077;-74
2022/12/19 14:32:37;;;;;;;30.98;11.93;;;;;;;4.35;59.79;96430.75;4152105;28;20050;-70
2022/12/19 14:35:05;;;;;;;21.40;11.88;;;;;;;4.41;59.74;96420.06;4151549;28;20045;-71
2022/12/19 14:37:29;;;;;;;22.60;12.10;;;;;;;4.46;58.58;96431.00;4163358;28;20056;-72
2022/12/19 14:39:57;;;;;;;22.10;11.90;;;;;;;4.41;59.32;96427.84;4156029;28;20056;-70
2022/12/19 14:44:52;;;;;;;21.88;11.95;;;;;;;4.44;59.18;96419.03;4170835;28;20084;-69
2022/12/19 14:47:22;;;;;;;19.42;10.98;;;;;;;4.35;58.85;96417.75;4154190;28;20449;-72
2022/12/19 14:49:45;;;;;;;18.48;11.35;;;;;;;4.32;58.26;96410.13;4170144;28;20072;-80
2022/12/19 14:52:33;;;;;;;20.27;12.00;;;;;;;4.28;58.48;96411.19;4157122;28;20404;-73
2022/12/19 14:55:30;;;;;;;20.65;11.75;;;;;;;4.31;58.60;96408.47;4160263;28;20574;-84
2022/12/19 14:57:53;;;;;;;20.30;13.07;;;;;;;4.31;58.54;96398.91;4149830;28;20414;-79
2022/12/19 15:00:32;;;;;;;26.38;11.95;;;;;;;4.38;58.49;96402.03;4157771;28;20057;-73
2022/12/19 15:02:56;;;;;;;17.52;11.20;;;;;;;4.38;57.50;96394.25;4161343;28;20076;-73
2022/12/19 15:05:20;;;;;;;19.75;11.10;;;;;;;4.20;57.29;96385.66;4137187;28;20045;-72
2022/12/19 15:07:28;;;;;;;15.80;10.57;;;;;;;4.14;57.02;96391.16;4165316;28;20116;-73
2022/12/19 15:09:31;;;;;;;15.60;10.20;;;;;;;4.21;57.51;96395.09;4174947;28;20056;-73
2022/12/19 15:14:49;;;;;;;21.85;11.88;;;;;;;4.07;57.53;96390.63;4153662;28;20075;-72
2022/12/19 15:17:17;;;;;;;20.52;11.18;;;;;;;4.11;57.94;96391.31;4162960;28;20053;-71
2022/12/19 15:19:22;;;;;;;20.05;11.75;;;;;;;4.15;57.61;96397.19;4151556;28;20054;-72
2022/12/19 15:21:24;;;;;;;22.08;11.23;;;;;;;4.22;57.11;96393.38;4152545;28;20485;-72
2022/12/19 15:23:27;;;;;;;22.73;10.73;;;;;;;4.21;56.96;96399.47;4135383;28;20092;-72
2022/12/19 15:25:29;;;;;;;19.13;10.65;;;;;;;4.17;57.25;96403.97;4148691;28;20058;-74
2022/12/19 15:27:51;;;;;;;19.50;11.13;;;;;;;4.24;57.02;96404.50;4167636;28;20048;-71
2022/12/19 15:29:53;;;;;;;18.77;11.55;;;;;;;4.14;57.91;96405.88;4168078;28;20052;-71
2022/12/19 15:31:55;;;;;;;17.92;12.20;;;;;;;4.15;58.45;96404.97;4163657;28;20080;-72
2022/12/19 15:33:57;;;;;;;21.88;12.02;;;;;;;4.11;61.57;96406.88;4168872;28;20132;-75
2022/12/19 15:36:19;;;;;;;21.63;12.15;;;;;;;4.16;59.95;96406.66;4160765;28;20479;-73
2022/12/19 15:38:21;;;;;;;21.33;12.13;;;;;;;4.20;60.14;96410.78;4165503;28;20064;-73
2022/12/19 15:40:23;;;;;;;20.67;11.45;;;;;;;4.14;59.86;96416.25;4167555;28;20472;-71
2022/12/19 15:42:26;;;;;;;19.55;11.55;;;;;;;4.10;59.90;96420.75;4166698;28;20060;-75
2022/12/19 15:44:35;;;;;;;23.17;12.50;;;;;;;4.13;60.29;96422.34;4147396;28;20061;-75
2022/12/19 15:46:37;;;;;;;27.65;15.18;;;;;;;4.19;60.43;96422.03;4162970;28;20253;-72
2022/12/19 15:48:48;;;;;;;30.38;15.70;;;;;;;4.22;60.48;96430.53;4169265;28;20117;-74
2022/12/19 15:50:50;;;;;;;28.88;15.55;;;;;;;4.07;60.46;96431.31;4135098;28;20077;-71
2022/12/19 15:52:55;;;;;;;30.70;15.27;;;;;;;3.92;61.36;96427.72;4163474;28;20593;-71
2022/12/19 15:54:56;;;;;;;25.92;15.90;;;;;;;3.66;61.80;96418.63;4163801;28;20058;-71
2022/12/19 15:56:58;;;;;;;30.88;16.60;;;;;;;3.73;62.37;96413.97;4178055;28;20045;-72
2022/12/19 15:59:01;;;;;;;30.27;17.08;;;;;;;3.76;61.92;96416.41;4166215;28;20148;-72
2022/12/19 16:01:03;;;;;;;31.10;16.65;;;;;;;3.63;62.05;96424.78;4148450;28;20131;-71
2022/12/19 16:03:10;;;;;;;31.73;18.45;;;;;;;3.58;62.98;96418.97;4147598;28;20447;-71
2022/12/19 16:05:27;;;;;;;45.45;23.08;;;;;;;3.38;63.40;96421.72;4141274;28;20492;-71
2022/12/19 16:07:31;;;;;;;39.47;18.90;;;;;;;3.35;62.93;96414.91;4145730;28;20617;-73
2022/12/19 16:09:33;;;;;;;32.08;17.52;;;;;;;3.37;63.08;96430.38;4145596;28;20045;-72
2022/12/19 16:11:36;;;;;;;32.88;19.00;;;;;;;3.28;63.28;96426.47;4149500;28;20068;-72
2022/12/19 16:13:38;;;;;;;33.90;19.00;;;;;;;3.26;63.65;96423.94;4149283;28;20058;-73
2022/12/19 16:15:42;;;;;;;31.13;17.83;;;;;;;3.21;63.99;96432.84;4157778;28;20111;-72
2022/12/19 16:17:45;;;;;;;38.88;19.33;;;;;;;3.21;63.74;96427.69;4159933;28;20049;-71
2022/12/19 16:19:47;;;;;;;33.58;18.95;;;;;;;3.20;64.39;96431.16;4155822;28;20530;-72
2022/12/19 16:21:49;;;;;;;31.13;18.38;;;;;;;3.23;64.23;96434.47;4133327;28;20117;-71
2022/12/19 16:23:51;;;;;;;31.90;19.20;;;;;;;3.17;64.01;96442.50;4148513;28;20118;-73
2022/12/19 16:25:53;;;;;;;34.38;19.88;;;;;;;3.13;64.45;96434.97;4160883;28;20057;-74
2022/12/19 16:27:57;;;;;;;35.65;19.65;;;;;;;3.11;64.33;96435.00;4144980;28;20045;-72
2022/12/19 16:30:13;;;;;;;31.38;18.55;;;;;;;3.14;64.26;96439.22;4163135;28;20081;-73
2022/12/19 16:32:22;;;;;;;33.65;19.13;;;;;;;3.04;64.33;96444.00;4127580;28;21226;-73
2022/12/19 16:34:26;;;;;;;31.75;18.98;;;;;;;3.10;64.57;96440.25;4151024;28;20053;-72
2022/12/19 16:36:28;;;;;;;31.23;18.80;;;;;;;3.05;64.30;96440.47;4171091;28;20076;-73
2022/12/19 16:38:29;;;;;;;36.83;19.15;;;;;;;3.06;64.68;96449.94;4165897;28;20049;-73
2022/12/19 16:40:31;;;;;;;33.50;18.70;;;;;;;3.06;64.77;96449.94;4170779;28;20100;-74
2022/12/19 16:42:33;;;;;;;33.25;19.40;;;;;;;3.14;64.06;96444.38;4163992;28;20053;-72
2022/12/19 16:44:35;;;;;;;29.73;18.30;;;;;;;3.16;63.91;96446.03;4150858;28;20141;-73
2022/12/19 16:46:37;;;;;;;35.00;19.33;;;;;;;3.21;64.19;96451.81;4143973;28;20551;-72
2022/12/19 16:48:39;;;;;;;31.30;18.67;;;;;;;3.28;64.41;96444.59;4171926;28;20049;-71
2022/12/19 16:50:41;;;;;;;31.55;17.73;;;;;;;3.27;63.50;96443.75;4148340;28;20208;-73
2022/12/19 16:52:43;;;;;;;33.80;18.10;;;;;;;3.26;63.72;96439.47;4164381;28;20559;-72
2022/12/19 16:54:44;;;;;;;33.20;18.88;;;;;;;3.27;63.27;96446.34;4166995;28;20104;-74
2022/12/19 16:56:48;;;;;;;31.00;18.85;;;;;;;3.20;63.81;96439.75;4165191;28;20125;-72
2022/12/19 16:58:51;;;;;;;33.88;19.00;;;;;;;3.09;63.91;96436.84;4147325;28;20417;-71
2022/12/19 17:00:53;;;;;;;34.78;19.70;;;;;;;3.05;64.22;96445.66;4148227;28;20168;-73
2022/12/19 17:03:14;;;;;;;29.80;18.23;;;;;;;3.07;64.32;96451.59;4147311;28;20053;-73
2022/12/19 17:05:28;;;;;;;34.45;18.42;;;;;;;3.10;64.15;96442.84;4161712;28;20362;-72
2022/12/19 17:07:30;;;;;;;29.33;18.48;;;;;;;3.10;63.74;96442.84;4170269;28;20049;-72
2022/12/19 17:09:32;;;;;;;34.03;21.08;;;;;;;3.05;64.44;96441.34;4170149;28;20056;-71
2022/12/19 17:11:34;;;;;;;33.85;19.90;;;;;;;3.05;64.44;96443.94;4152939;28;20099;-72
2022/12/19 17:13:36;;;;;;;36.97;21.58;;;;;;;3.01;64.46;96452.75;4166878;28;20072;-70
2022/12/19 17:15:38;;;;;;;33.15;19.63;;;;;;;3.05;64.30;96456.00;4166675;28;20487;-72
2022/12/19 17:17:40;;;;;;;32.00;19.05;;;;;;;3.10;64.57;96445.44;4163751;28;20049;-72
2022/12/19 17:19:43;;;;;;;31.20;19.48;;;;;;;3.13;64.14;96440.13;4162633;28;20045;-72
2022/12/19 17:21:46;;;;;;;31.98;18.60;;;;;;;3.21;63.97;96448.41;4148142;28;20058;-73
2022/12/19 17:23:49;;;;;;;32.67;18.63;;;;;;;3.21;63.96;96444.03;4165010;28;20053;-74
2022/12/19 17:25:53;;;;;;;32.53;18.75;;;;;;;3.09;63.92;96442.00;4151839;28;20072;-75
2022/12/19 17:27:55;;;;;;;31.80;19.40;;;;;;;3.09;64.48;96447.19;4148388;28;20049;-71
2022/12/19 17:29:57;;;;;;;28.60;17.58;;;;;;;3.08;63.61;96453.31;4168099;28;20052;-71
2022/12/19 17:31:59;;;;;;;29.40;17.55;;;;;;;3.09;63.39;96449.78;4163293;28;20065;-74
2022/12/19 17:34:02;;;;;;;32.70;19.73;;;;;;;3.08;64.02;96451.53;4149033;28;20515;-73
2022/12/19 17:36:05;;;;;;;33.08;18.77;;;;;;;2.90;64.45;96459.31;4165918;28;20275;-73
2022/12/19 17:38:15;;;;;;;33.28;19.83;;;;;;;2.94;64.85;96453.06;4163178;28;20572;-73
2022/12/19 17:40:26;;;;;;;31.08;19.55;;;;;;;2.95;64.54;96455.59;4131563;28;20046;-72
2022/12/19 17:42:28;;;;;;;29.42;17.63;;;;;;;2.81;64.28;96453.63;4163392;28;20538;-73
2022/12/19 17:44:37;;;;;;;31.33;18.25;;;;;;;2.86;64.79;96464.63;4162697;28;20065;-73
2022/12/19 17:46:40;;;;;;;26.98;16.67;;;;;;;2.92;63.87;96449.72;4164051;28;20111;-74
2022/12/19 17:48:44;;;;;;;29.88;16.98;;;;;;;2.99;63.79;96445.94;4168914;28;20053;-73
2022/12/19 17:50:45;;;;;;;26.45;14.13;;;;;;;3.04;62.82;96438.81;4144989;28;20081;-72
2022/12/19 17:52:49;;;;;;;20.27;12.48;;;;;;;2.97;60.84;96448.59;4168084;28;20057;-73
2022/12/19 17:54:51;;;;;;;21.27;12.65;;;;;;;2.95;60.46;96440.06;4153186;28;20377;-76
2022/12/19 17:56:54;;;;;;;19.20;12.15;;;;;;;2.87;60.27;96443.00;4168122;28;20136;-75
2022/12/19 17:58:56;;;;;;;21.80;11.43;;;;;;;2.97;60.39;96447.75;4170221;28;20064;-73
2022/12/19 18:00:57;;;;;;;18.23;11.73;;;;;;;3.04;60.57;96446.56;4171147;28;20056;-72
2022/12/19 18:03:03;;;;;;;21.23;11.48;;;;;;;3.17;59.99;96439.09;4152995;28;20534;-73
2022/12/19 18:05:06;;;;;;;25.80;11.02;;;;;;;3.27;59.66;96435.16;4139621;28;20340;-72
2022/12/19 18:07:13;;;;;;;18.42;10.93;;;;;;;3.30;58.50;96432.41;4166166;28;20408;-72
2022/12/19 18:09:18;;;;;;;20.77;11.32;;;;;;;3.36;58.57;96442.50;4170614;28;20633;-72
2022/12/19 18:11:24;;;;;;;19.63;11.13;;;;;;;3.42;58.59;96438.75;4169207;28;20135;-73
2022/12/19 18:13:27;;;;;;;19.20;10.93;;;;;;;3.48;58.72;96435.88;4149486;28;20058;-75
2022/12/19 18:15:29;;;;;;;19.88;12.02;;;;;;;3.36;57.73;96444.25;4156775;28;20061;-76
2022/12/19 18:17:33;;;;;;;20.83;10.80;;;;;;;3.25;58.03;96453.34;4172487;28;20111;-72
2022/12/19 18:19:34;;;;;;;17.90;10.97;;;;;;;3.29;57.89;96454.03;4176003;28;20061;-71
2022/12/19 18:21:36;;;;;;;17.50;10.38;;;;;;;3.24;57.65;96456.84;4158889;28;20132;-73
2022/12/19 18:23:38;;;;;;;19.40;10.68;;;;;;;3.34;58.42;96452.09;4179749;28;20500;-70
2022/12/19 18:25:40;;;;;;;19.13;11.75;;;;;;;3.10;57.65;96461.84;4156611;28;20092;-73
2022/12/19 18:27:42;;;;;;;19.13;10.75;;;;;;;3.09;58.04;96462.72;4158953;28;20076;-72
2022/12/19 18:29:43;;;;;;;16.92;10.13;;;;;;;3.08;58.08;96468.84;4177337;28;20049;-73
2022/12/19 18:31:45;;;;;;;15.93;9.68;;;;;;;3.03;57.57;96453.50;4160597;28;20128;-73
2022/12/19 18:33:53;;;;;;;18.88;10.15;;;;;;;3.02;57.77;96458.75;4162350;28;20712;-72
2022/12/19 18:35:54;;;;;;;17.30;10.23;;;;;;;3.12;57.85;96460.03;4158934;28;20121;-73
2022/12/19 18:37:59;;;;;;;17.23;10.52;;;;;;;3.23;57.44;96452.59;4139348;28;20554;-72
2022/12/19 18:40:00;;;;;;;16.10;10.20;;;;;;;3.31;57.50;96451.38;4157138;28;20081;-74
2022/12/19 18:42:15;;;;;;;17.27;9.65;;;;;;;3.39;57.79;96459.63;4179398;28;20160;-74
2022/12/19 18:44:17;;;;;;;18.58;11.13;;;;;;;3.47;57.64;96454.94;4162318;28;20057;-73
2022/12/19 18:46:25;;;;;;;16.02;10.07;;;;;;;3.49;56.95;96455.72;4171787;28;20049;-71
2022/12/19 18:48:31;;;;;;;17.10;9.82;;;;;;;3.55;56.61;96451.97;4178858;28;20166;-71
2022/12/19 18:50:33;;;;;;;18.20;9.63;;;;;;;3.62;56.85;96456.81;4173367;28;20381;-74
2022/12/19 18:52:34;;;;;;;15.00;9.15;;;;;;;3.63;56.04;96458.47;4162367;28;20056;-72
2022/12/19 18:54:36;;;;;;;15.32;9.48;;;;;;;3.54;55.68;96458.91;4162941;28;20156;-72
2022/12/19 18:56:39;;;;;;;14.85;8.88;;;;;;;3.42;55.36;96465.53;4163353;28;20061;-75
2022/12/19 18:58:41;;;;;;;14.75;8.43;;;;;;;3.36;55.60;96464.97;4148981;28;20058;-73
2022/12/19 19:00:43;;;;;;;19.02;10.38;;;;;;;3.40;56.07;96467.34;4119683;28;20089;-71
2022/12/19 19:02:54;;;;;;;17.58;8.30;;;;;;;3.46;56.23;96468.78;4122837;28;20113;-74
2022/12/19 19:04:57;;;;;;;13.70;8.38;;;;;;;3.45;55.75;96469.72;4112098;28;20097;-72
2022/12/19 19:06:59;;;;;;;13.83;8.37;;;;;;;3.37;55.56;96475.25;4133680;28;20050;-72
2022/12/19 19:09:01;;;;;;;12.63;7.97;;;;;;;3.40;55.74;96471.66;4133559;28;20294;-74
2022/12/19 19:11:02;;;;;;;15.70;9.75;;;;;;;3.38;55.32;96476.09;4126220;28;20085;-71
2022/12/19 19:13:05;;;;;;;14.98;9.02;;;;;;;3.00;55.86;96486.47;4144962;28;20062;-73
2022/12/19 19:15:11;;;;;;;16.67;8.68;;;;;;;2.96;56.35;96485.75;4135517;28;20050;-73
2022/12/19 19:17:22;;;;;;;15.93;9.85;;;;;;;3.01;56.22;96485.53;4128894;28;20457;-74
2022/12/19 19:19:24;;;;;;;12.98;8.80;;;;;;;3.08;56.87;96481.78;4140110;28;20517;-72
2022/12/19 19:21:29;;;;;;;15.65;9.38;;;;;;;3.16;56.36;96479.69;4111226;28;20047;-74
2022/12/19 19:23:39;;;;;;;15.35;9.68;;;;;;;3.22;56.14;96486.31;4137869;28;20107;-74
2022/12/19 19:25:40;;;;;;;14.57;9.48;;;;;;;3.34;56.19;96480.59;4127334;28;20093;-73
2022/12/19 19:27:43;;;;;;;19.10;10.10;;;;;;;3.40;56.28;96480.31;4143039;28;20049;-72
2022/12/19 19:29:45;;;;;;;18.77;10.35;;;;;;;3.39;55.78;96476.00;4145077;28;20497;-73
2022/12/19 19:31:49;;;;;;;18.48;10.77;;;;;;;3.11;56.05;96476.44;4130751;28;20553;-73
2022/12/19 19:33:55;;;;;;;16.17;9.60;;;;;;;3.05;56.52;96477.59;4126246;28;20062;-73
2022/12/19 19:35:59;;;;;;;17.02;10.10;;;;;;;3.07;56.48;96473.16;4145961;28;20080;-73
2022/12/19 19:38:08;;;;;;;16.55;10.32;;;;;;;3.01;56.67;96476.03;4153268;28;20063;-73
2022/12/19 19:40:10;;;;;;;16.13;9.65;;;;;;;2.90;56.44;96486.00;4161117;28;20144;-73
2022/12/19 19:42:12;;;;;;;15.10;9.27;;;;;;;2.94;56.76;96484.97;4181807;28;20075;-73
2022/12/19 19:44:14;;;;;;;15.77;8.75;;;;;;;3.02;57.08;96488.06;4181239;28;20516;-73
2022/12/19 19:46:15;;;;;;;15.40;9.15;;;;;;;2.97;56.22;96490.03;4180795;28;20140;-73